Time;durP1;ratioP1;P1;durP2;ratioP2;P2;SDS_P1;SDS_P2;PMS_P1;PMS_P2;Temp;Humidity;BMP_temperature;BMP_pressure;BME280_temperature;BME280_humidity;BME280_pressure;Samples;Min_cycle;Max_cycle;Signal;HPM_P1;HPM_P2
2020/12/31 00:00:10;;;;;;;12.18;6.85;;;;;;;;;;5054553;28;20028;-52
2020/12/31 00:02:36;;;;;;;9.48;5.30;;;;;;;;;;5056289;28;20028;-52
2020/12/31 00:05:02;;;;;;;5.03;2.55;;;;;;;;;;5060271;28;20469;-51
2020/12/31 00:07:28;;;;;;;3.55;2.20;;;;;;;;;;5054994;28;20029;-52
2020/12/31 00:09:55;;;;;;;13.52;6.32;;;;;;;;;;5065782;28;20403;-52
2020/12/31 00:12:21;;;;;;;5.28;2.78;;;;;;;;;;5070685;28;20028;-53
2020/12/31 00:14:47;;;;;;;4.13;2.50;;;;;;;;;;5063739;28;20024;-54
2020/12/31 00:17:13;;;;;;;6.20;3.45;;;;;;;;;;5065667;28;20103;-53
2020/12/31 00:19:39;;;;;;;9.55;5.70;;;;;;;;;;5074543;28;20024;-53
2020/12/31 00:22:05;;;;;;;10.45;6.47;;;;;;;;;;5074231;28;20108;-52
2020/12/31 00:24:31;;;;;;;10.88;5.45;;;;;;;;;;5073824;28;20060;-54
2020/12/31 00:26:57;;;;;;;9.13;5.13;;;;;;;;;;5073962;28;20082;-55
2020/12/31 00:29:23;;;;;;;7.70;4.75;;;;;;;;;;5074510;28;20047;-55
2020/12/31 00:31:49;;;;;;;11.30;5.55;;;;;;;;;;5061711;28;20021;-51
2020/12/31 00:34:15;;;;;;;9.52;5.28;;;;;;;;;;5072257;28;20488;-54
2020/12/31 00:36:41;;;;;;;7.80;4.22;;;;;;;;;;5074146;28;20032;-53
2020/12/31 00:39:07;;;;;;;7.55;4.00;;;;;;;;;;5073972;28;20032;-54
2020/12/31 00:41:33;;;;;;;7.18;3.70;;;;;;;;;;5074142;28;20050;-54
2020/12/31 00:43:59;;;;;;;9.73;4.18;;;;;;;;;;5074051;28;20075;-55
2020/12/31 00:46:25;;;;;;;7.90;4.57;;;;;;;;;;5074082;28;20016;-56
2020/12/31 00:48:51;;;;;;;6.90;3.80;;;;;;;;;;5073813;28;20036;-54
2020/12/31 00:51:17;;;;;;;6.75;3.80;;;;;;;;;;5073442;28;20021;-54
2020/12/31 00:53:43;;;;;;;7.00;4.15;;;;;;;;;;5075417;28;20082;-55
2020/12/31 00:56:09;;;;;;;7.03;3.78;;;;;;;;;;5053690;28;20646;-53
2020/12/31 00:58:36;;;;;;;7.53;3.70;;;;;;;;;;5054309;28;20013;-56
2020/12/31 01:01:02;;;;;;;5.03;2.92;;;;;;;;;;5054249;28;20032;-55
2020/12/31 01:03:28;;;;;;;7.05;3.80;;;;;;;;;;5065430;28;20039;-51
2020/12/31 01:05:54;;;;;;;11.10;6.95;;;;;;;;;;5054763;28;20028;-52
2020/12/31 01:08:20;;;;;;;9.68;5.40;;;;;;;;;;5071076;28;20024;-51
2020/12/31 01:10:46;;;;;;;11.38;5.88;;;;;;;;;;5054779;28;20029;-53
2020/12/31 01:13:12;;;;;;;8.32;4.45;;;;;;;;;;5055943;28;20017;-57
2020/12/31 01:15:38;;;;;;;9.40;5.10;;;;;;;;;;5054283;28;20063;-56
2020/12/31 01:18:04;;;;;;;8.50;4.63;;;;;;;;;;5055683;28;20029;-55
2020/12/31 01:20:30;;;;;;;8.88;4.97;;;;;;;;;;5053599;28;20013;-54
2020/12/31 01:22:56;;;;;;;10.00;4.60;;;;;;;;;;5052605;28;20032;-56
2020/12/31 01:25:22;;;;;;;14.65;7.03;;;;;;;;;;5058508;28;20041;-54
2020/12/31 01:27:48;;;;;;;16.38;8.82;;;;;;;;;;5065484;28;21131;-55
2020/12/31 01:30:14;;;;;;;18.38;9.15;;;;;;;;;;5056713;28;20567;-54
2020/12/31 01:32:40;;;;;;;17.52;8.68;;;;;;;;;;5055119;28;20021;-56
2020/12/31 01:35:06;;;;;;;22.65;11.70;;;;;;;;;;5056440;28;20101;-53
2020/12/31 01:37:32;;;;;;;17.30;9.98;;;;;;;;;;5055474;28;20013;-56
2020/12/31 01:39:58;;;;;;;14.38;7.97;;;;;;;;;;5053435;28;20021;-54
2020/12/31 01:42:24;;;;;;;15.13;8.55;;;;;;;;;;5054447;28;20048;-53
2020/12/31 01:44:50;;;;;;;12.20;7.15;;;;;;;;;;5060976;28;20028;-52
2020/12/31 01:47:16;;;;;;;12.43;7.07;;;;;;;;;;5052410;28;20029;-51
2020/12/31 01:49:43;;;;;;;24.00;14.15;;;;;;;;;;5054999;28;20070;-53
2020/12/31 01:52:09;;;;;;;18.88;10.43;;;;;;;;;;5063650;28;20056;-56
2020/12/31 01:54:35;;;;;;;17.17;8.43;;;;;;;;;;5072483;28;20028;-56
2020/12/31 01:57:02;;;;;;;17.10;8.63;;;;;;;;;;5071497;28;20025;-57
2020/12/31 01:59:28;;;;;;;13.13;7.28;;;;;;;;;;5072746;28;20090;-55
2020/12/31 02:01:55;;;;;;;11.00;6.10;;;;;;;;;;5072854;28;20498;-55
2020/12/31 02:04:21;;;;;;;11.00;5.97;;;;;;;;;;5072809;28;20024;-56
2020/12/31 02:06:48;;;;;;;11.45;6.22;;;;;;;;;;5072015;28;20083;-52
2020/12/31 02:09:14;;;;;;;9.02;4.97;;;;;;;;;;5053855;28;20393;-53
2020/12/31 02:11:40;;;;;;;8.02;4.05;;;;;;;;;;5054317;28;20024;-55
2020/12/31 02:14:07;;;;;;;5.57;3.00;;;;;;;;;;5072446;28;20059;-53
2020/12/31 02:16:39;;;;;;;6.03;3.50;;;;;;;;;;5072711;28;20048;-56
2020/12/31 02:19:05;;;;;;;5.90;2.70;;;;;;;;;;5072386;28;20021;-52
2020/12/31 02:21:33;;;;;;;5.53;3.13;;;;;;;;;;5072379;28;20396;-52
2020/12/31 02:24:00;;;;;;;4.22;2.58;;;;;;;;;;5071991;28;20044;-52
2020/12/31 02:26:28;;;;;;;5.00;2.67;;;;;;;;;;5072356;28;20506;-53
2020/12/31 02:28:55;;;;;;;5.97;2.88;;;;;;;;;;5071928;28;20032;-53
2020/12/31 02:31:21;;;;;;;4.50;2.45;;;;;;;;;;5072460;28;20480;-53
2020/12/31 02:33:48;;;;;;;6.15;2.63;;;;;;;;;;5072347;28;20025;-54
2020/12/31 02:36:15;;;;;;;3.45;1.98;;;;;;;;;;5072162;28;20028;-53
2020/12/31 02:38:42;;;;;;;5.63;1.88;;;;;;;;;;5072356;28;20029;-52
2020/12/31 02:41:08;;;;;;;6.40;2.22;;;;;;;;;;5071981;28;20053;-54
2020/12/31 02:43:34;;;;;;;6.03;2.65;;;;;;;;;;5072273;28;20082;-53
2020/12/31 02:46:00;;;;;;;5.15;2.65;;;;;;;;;;5072190;28;20017;-53
2020/12/31 02:48:27;;;;;;;6.40;2.15;;;;;;;;;;5072268;28;20484;-52
2020/12/31 02:50:53;;;;;;;6.30;2.25;;;;;;;;;;5071946;28;20025;-53
2020/12/31 02:53:19;;;;;;;5.95;3.33;;;;;;;;;;5071937;28;20131;-53
2020/12/31 02:55:45;;;;;;;4.60;2.40;;;;;;;;;;5054378;28;20032;-52
2020/12/31 02:58:11;;;;;;;4.05;1.85;;;;;;;;;;5057371;28;20429;-52
2020/12/31 03:00:37;;;;;;;4.10;2.05;;;;;;;;;;5065371;28;20440;-52
2020/12/31 03:03:03;;;;;;;3.35;1.90;;;;;;;;;;5068207;28;20380;-53
2020/12/31 03:05:29;;;;;;;4.20;2.20;;;;;;;;;;5070120;28;20495;-53
2020/12/31 03:07:55;;;;;;;4.65;2.05;;;;;;;;;;5075727;28;20025;-50
2020/12/31 03:10:21;;;;;;;3.30;1.20;;;;;;;;;;5075924;28;20035;-52
2020/12/31 03:12:47;;;;;;;4.53;1.00;;;;;;;;;;5061708;28;20384;-53
2020/12/31 03:15:14;;;;;;;3.95;1.80;;;;;;;;;;5076147;28;20087;-52
2020/12/31 03:17:40;;;;;;;4.75;2.30;;;;;;;;;;5075847;28;20028;-52
2020/12/31 03:20:06;;;;;;;4.28;2.25;;;;;;;;;;5075993;28;20016;-52
2020/12/31 03:22:33;;;;;;;1.88;1.10;;;;;;;;;;5075709;28;20021;-52
2020/12/31 03:24:59;;;;;;;4.03;1.70;;;;;;;;;;5075513;28;20055;-50
2020/12/31 03:27:25;;;;;;;3.78;1.30;;;;;;;;;;5075732;28;20028;-51
2020/12/31 03:29:51;;;;;;;5.18;2.22;;;;;;;;;;5061344;28;20091;-52
2020/12/31 03:32:18;;;;;;;7.03;2.85;;;;;;;;;;5075400;28;20075;-52
2020/12/31 03:34:44;;;;;;;3.45;1.70;;;;;;;;;;5075444;28;20032;-52
2020/12/31 03:37:10;;;;;;;3.90;1.83;;;;;;;;;;5075396;28;20071;-54
2020/12/31 03:39:37;;;;;;;4.82;2.55;;;;;;;;;;5075380;28;20078;-52
2020/12/31 03:42:03;;;;;;;2.97;1.45;;;;;;;;;;5075233;28;20491;-53
2020/12/31 03:44:29;;;;;;;0.77;0.35;;;;;;;;;;5075186;28;20126;-55
2020/12/31 03:46:55;;;;;;;1.50;0.50;;;;;;;;;;5074971;28;20031;-56
2020/12/31 03:49:22;;;;;;;1.45;0.60;;;;;;;;;;5074214;28;20064;-53
2020/12/31 03:51:48;;;;;;;1.35;0.50;;;;;;;;;;5074102;28;20024;-55
2020/12/31 03:54:14;;;;;;;2.38;0.90;;;;;;;;;;5074846;28;20032;-56
2020/12/31 03:56:40;;;;;;;3.38;1.20;;;;;;;;;;5056960;28;20032;-54
2020/12/31 03:59:06;;;;;;;1.88;0.80;;;;;;;;;;5074761;28;20031;-52
2020/12/31 04:01:32;;;;;;;2.50;1.10;;;;;;;;;;5075419;28;20163;-54
2020/12/31 04:03:59;;;;;;;2.47;0.80;;;;;;;;;;5060580;28;20027;-56
2020/12/31 04:06:26;;;;;;;6.50;1.38;;;;;;;;;;5075045;28;20416;-52
2020/12/31 04:08:52;;;;;;;3.22;1.23;;;;;;;;;;5073669;28;20044;-52
2020/12/31 04:11:18;;;;;;;3.75;1.40;;;;;;;;;;5074775;28;20025;-56
2020/12/31 04:13:44;;;;;;;5.25;2.25;;;;;;;;;;5056610;28;20109;-53
2020/12/31 04:16:10;;;;;;;5.93;1.95;;;;;;;;;;5074806;28;20113;-53
2020/12/31 04:18:36;;;;;;;3.33;1.70;;;;;;;;;;5074256;28;20024;-52
2020/12/31 04:21:02;;;;;;;10.90;4.95;;;;;;;;;;5074329;28;20024;-52
2020/12/31 04:23:28;;;;;;;2.97;1.65;;;;;;;;;;5074132;28;20381;-56
2020/12/31 04:25:54;;;;;;;3.28;1.58;;;;;;;;;;5074404;28;20448;-55
2020/12/31 04:28:20;;;;;;;5.88;2.90;;;;;;;;;;5074391;28;20033;-54
2020/12/31 04:30:47;;;;;;;6.63;3.40;;;;;;;;;;5074177;28;20078;-52
2020/12/31 04:33:14;;;;;;;6.35;3.28;;;;;;;;;;5074339;28;20033;-55
2020/12/31 04:35:40;;;;;;;7.90;4.05;;;;;;;;;;5074807;28;20353;-55
2020/12/31 04:38:06;;;;;;;8.65;3.70;;;;;;;;;;5073799;28;20526;-50
2020/12/31 04:40:32;;;;;;;12.05;6.43;;;;;;;;;;5074118;28;20111;-54
2020/12/31 04:42:58;;;;;;;11.25;4.90;;;;;;;;;;5073954;28;20051;-55
2020/12/31 04:45:26;;;;;;;6.35;3.03;;;;;;;;;;5073796;28;20036;-56
2020/12/31 04:48:07;;;;;;;7.60;3.60;;;;;;;;;;5073870;28;20028;-53
2020/12/31 04:50:34;;;;;;;7.53;4.45;;;;;;;;;;5074066;28;20078;-53
2020/12/31 04:53:05;;;;;;;4.38;2.45;;;;;;;;;;5073691;28;20099;-54
2020/12/31 04:55:33;;;;;;;5.25;2.80;;;;;;;;;;5074131;28;20060;-53
2020/12/31 04:57:59;;;;;;;6.10;2.80;;;;;;;;;;5073624;28;20056;-55
2020/12/31 05:00:25;;;;;;;4.82;2.45;;;;;;;;;;5073603;28;20063;-52
2020/12/31 05:02:54;;;;;;;74.75;26.77;;;;;;;;;;5065359;28;20037;-53
2020/12/31 05:05:21;;;;;;;79.43;29.33;;;;;;;;;;5068614;28;20021;-53
2020/12/31 05:07:50;;;;;;;71.75;27.17;;;;;;;;;;5073799;28;20051;-55
2020/12/31 05:10:17;;;;;;;1.83;1.13;;;;;;;;;;5073744;28;20077;-53
2020/12/31 05:12:43;;;;;;;7.68;3.20;;;;;;;;;;5073411;28;20464;-56
2020/12/31 05:15:09;;;;;;;9.85;4.97;;;;;;;;;;5073660;28;20032;-55
2020/12/31 05:17:35;;;;;;;5.82;3.70;;;;;;;;;;5073448;28;20501;-53
2020/12/31 05:20:13;;;;;;;40.55;17.42;;;;;;;;;;5073293;28;20064;-54
2020/12/31 05:22:39;;;;;;;6.80;4.15;;;;;;;;;;5072692;28;20025;-54
2020/12/31 05:25:05;;;;;;;13.93;10.60;;;;;;;;;;5073258;28;20091;-52
2020/12/31 05:27:31;;;;;;;3.05;1.58;;;;;;;;;;5073262;28;20033;-55
2020/12/31 05:29:57;;;;;;;2.75;1.10;;;;;;;;;;5073713;28;20455;-53
2020/12/31 05:32:24;;;;;;;1.25;0.90;;;;;;;;;;5073363;28;20103;-55
2020/12/31 05:34:52;;;;;;;1.40;0.70;;;;;;;;;;5073035;28;20093;-52
2020/12/31 05:37:19;;;;;;;3.83;1.60;;;;;;;;;;5073228;28;20078;-53
2020/12/31 05:39:57;;;;;;;3.35;1.90;;;;;;;;;;5073191;28;20345;-53
2020/12/31 05:42:23;;;;;;;6.30;2.35;;;;;;;;;;5072977;28;20052;-55
2020/12/31 05:45:06;;;;;;;2.53;1.52;;;;;;;;;;5072924;28;20033;-52
2020/12/31 05:47:33;;;;;;;6.65;1.40;;;;;;;;;;5072877;28;20059;-51
2020/12/31 05:49:59;;;;;;;45.67;20.17;;;;;;;;;;5072859;28;20033;-52
2020/12/31 05:52:35;;;;;;;28.25;12.55;;;;;;;;;;5072959;28;20020;-55
2020/12/31 05:55:03;;;;;;;55.72;24.42;;;;;;;;;;5072705;28;20033;-52
2020/12/31 05:57:45;;;;;;;30.23;14.05;;;;;;;;;;5072865;28;20024;-53
2020/12/31 06:00:13;;;;;;;30.35;14.45;;;;;;;;;;5072655;28;20035;-52
2020/12/31 06:02:46;;;;;;;43.80;21.38;;;;;;;;;;5048026;28;20116;-52
2020/12/31 06:05:15;;;;;;;2.85;1.50;;;;;;;;;;5066578;28;20036;-52
2020/12/31 06:07:42;;;;;;;1.77;1.10;;;;;;;;;;5072575;28;20220;-55
2020/12/31 06:10:09;;;;;;;2.65;1.10;;;;;;;;;;5071682;28;20062;-52
2020/12/31 06:12:48;;;;;;;2.38;1.20;;;;;;;;;;5072252;28;20016;-53
2020/12/31 06:15:18;;;;;;;5.82;2.97;;;;;;;;;;5071253;28;20052;-52
2020/12/31 06:17:49;;;;;;;3.95;2.20;;;;;;;;;;5071471;28;20035;-55
2020/12/31 06:20:18;;;;;;;6.47;2.97;;;;;;;;;;5072656;28;20070;-55
2020/12/31 06:23:03;;;;;;;5.32;3.60;;;;;;;;;;5072410;28;20012;-54
2020/12/31 06:25:48;;;;;;;4.72;2.63;;;;;;;;;;5072330;28;20052;-55
2020/12/31 06:28:20;;;;;;;10.57;4.70;;;;;;;;;;5059531;28;20033;-59
2020/12/31 06:30:50;;;;;;;2.50;1.30;;;;;;;;;;5072296;28;20040;-51
2020/12/31 06:33:26;;;;;;;14.20;8.88;;;;;;;;;;5072184;28;20021;-51
2020/12/31 06:35:59;;;;;;;6.57;2.90;;;;;;;;;;5072182;28;20036;-57
2020/12/31 06:38:35;;;;;;;15.85;8.00;;;;;;;;;;5072427;28;20028;-53
2020/12/31 06:41:02;;;;;;;32.15;16.27;;;;;;;;;;5072242;28;20029;-52
2020/12/31 06:43:32;;;;;;;13.25;7.32;;;;;;;;;;5071335;28;20028;-53
2020/12/31 06:45:58;;;;;;;7.72;3.80;;;;;;;;;;5071982;28;20032;-55
2020/12/31 06:48:27;;;;;;;11.25;4.78;;;;;;;;;;5055466;28;20032;-57
2020/12/31 06:51:06;;;;;;;12.82;5.13;;;;;;;;;;5063583;28;20349;-56
2020/12/31 06:53:38;;;;;;;21.25;12.05;;;;;;;;;;5057951;28;20552;-52
2020/12/31 06:56:11;;;;;;;14.70;7.97;;;;;;;;;;5055058;28;20033;-58
2020/12/31 06:58:37;;;;;;;18.23;11.90;;;;;;;;;;5063349;28;20027;-55
2020/12/31 07:01:22;;;;;;;32.88;18.63;;;;;;;;;;5071839;28;20030;-52
2020/12/31 07:03:49;;;;;;;26.05;15.48;;;;;;;;;;5068659;28;20021;-52
2020/12/31 07:06:21;;;;;;;42.83;25.95;;;;;;;;;;5072274;28;20029;-52
2020/12/31 07:09:10;;;;;;;36.70;20.92;;;;;;;;;;5054129;28;20383;-51
2020/12/31 07:11:37;;;;;;;37.80;22.27;;;;;;;;;;5069766;28;20108;-52
2020/12/31 07:14:20;;;;;;;73.70;47.00;;;;;;;;;;5071367;28;20017;-52
2020/12/31 07:16:46;;;;;;;187.52;111.53;;;;;;;;;;5071957;28;20021;-53
2020/12/31 07:19:13;;;;;;;198.35;105.40;;;;;;;;;;5071690;28;20045;-55
2020/12/31 07:21:39;;;;;;;122.82;69.35;;;;;;;;;;5071780;28;20035;-51
2020/12/31 07:24:24;;;;;;;102.57;55.80;;;;;;;;;;5071276;28;20405;-51
2020/12/31 07:26:51;;;;;;;342.38;162.60;;;;;;;;;;5071786;28;20085;-51
2020/12/31 07:29:26;;;;;;;90.70;50.28;;;;;;;;;;5062355;28;20499;-52
2020/12/31 07:31:52;;;;;;;48.28;31.55;;;;;;;;;;5071394;28;20039;-51
2020/12/31 07:34:22;;;;;;;56.28;37.70;;;;;;;;;;5063327;28;20116;-51
2020/12/31 07:37:03;;;;;;;18.30;12.82;;;;;;;;;;5070550;28;20021;-51
2020/12/31 07:39:29;;;;;;;35.83;21.98;;;;;;;;;;5071813;28;20448;-51
2020/12/31 07:42:15;;;;;;;45.67;28.38;;;;;;;;;;5071445;28;20017;-51
2020/12/31 07:44:50;;;;;;;67.63;37.65;;;;;;;;;;5072869;28;20031;-51
2020/12/31 07:47:17;;;;;;;43.05;26.70;;;;;;;;;;5075106;28;20025;-52
2020/12/31 07:49:48;;;;;;;26.17;11.20;;;;;;;;;;5074886;28;20032;-53
2020/12/31 07:52:14;;;;;;;27.73;16.38;;;;;;;;;;5075066;28;20715;-53
2020/12/31 07:54:40;;;;;;;21.60;14.13;;;;;;;;;;5074934;28;20067;-51
2020/12/31 07:57:09;;;;;;;51.47;31.63;;;;;;;;;;5074968;28;20100;-51
2020/12/31 07:59:39;;;;;;;45.25;28.75;;;;;;;;;;5074875;28;20109;-51
2020/12/31 08:02:06;;;;;;;53.25;30.98;;;;;;;;;;5072585;28;20016;-51
2020/12/31 08:04:32;;;;;;;58.97;35.85;;;;;;;;;;5062913;28;20028;-51
2020/12/31 08:07:01;;;;;;;92.00;58.17;;;;;;;;;;5074624;28;20059;-51
2020/12/31 08:09:27;;;;;;;61.22;38.17;;;;;;;;;;5074616;28;20036;-51
2020/12/31 08:11:53;;;;;;;50.72;31.02;;;;;;;;;;5056651;28;20395;-51
2020/12/31 08:14:19;;;;;;;65.25;39.10;;;;;;;;;;5074436;28;20118;-52
2020/12/31 08:16:58;;;;;;;66.93;40.80;;;;;;;;;;5074990;28;20118;-51
2020/12/31 08:19:24;;;;;;;60.40;38.05;;;;;;;;;;5070072;28;20094;-51
2020/12/31 08:21:51;;;;;;;52.20;33.17;;;;;;;;;;5065204;28;20159;-52
2020/12/31 08:24:18;;;;;;;55.25;33.90;;;;;;;;;;5074246;28;20056;-52
2020/12/31 08:26:55;;;;;;;69.93;43.70;;;;;;;;;;5074450;28;20028;-51
2020/12/31 08:29:21;;;;;;;77.90;44.83;;;;;;;;;;5073777;28;20033;-52
2020/12/31 08:31:52;;;;;;;78.35;47.33;;;;;;;;;;5074370;28;20027;-51
2020/12/31 08:34:25;;;;;;;68.88;40.03;;;;;;;;;;5074497;28;20050;-51
2020/12/31 08:36:51;;;;;;;70.80;41.53;;;;;;;;;;5074307;28;20020;-51
2020/12/31 08:39:20;;;;;;;69.07;41.55;;;;;;;;;;5074420;28;20020;-52
2020/12/31 08:41:56;;;;;;;56.58;35.33;;;;;;;;;;5074178;28;20017;-52
2020/12/31 08:44:24;;;;;;;58.60;36.97;;;;;;;;;;5059813;28;20072;-51
2020/12/31 08:46:50;;;;;;;60.40;38.63;;;;;;;;;;5074152;28;20052;-52
2020/12/31 08:49:22;;;;;;;64.30;38.47;;;;;;;;;;5073907;28;20044;-51
2020/12/31 08:51:50;;;;;;;82.03;48.33;;;;;;;;;;5073657;28;20468;-52
2020/12/31 08:54:16;;;;;;;68.68;42.13;;;;;;;;;;5073891;28;20116;-52
2020/12/31 08:56:42;;;;;;;74.15;43.75;;;;;;;;;;5073607;28;20025;-52
2020/12/31 08:59:17;;;;;;;73.75;44.47;;;;;;;;;;5072939;28;20048;-51
2020/12/31 09:01:46;;;;;;;76.40;46.53;;;;;;;;;;5072468;28;20062;-52
2020/12/31 09:04:18;;;;;;;77.00;50.20;;;;;;;;;;5058683;28;20029;-52
2020/12/31 09:06:45;;;;;;;90.78;53.20;;;;;;;;;;5073165;28;20063;-50
2020/12/31 09:09:23;;;;;;;116.35;66.63;;;;;;;;;;5039342;28;20404;-49
2020/12/31 09:11:57;;;;;;;149.63;78.45;;;;;;;;;;5054348;28;21235;-49
2020/12/31 09:14:23;;;;;;;49.50;30.83;;;;;;;;;;5072394;28;20016;-50
2020/12/31 09:16:49;;;;;;;18.38;11.45;;;;;;;;;;5062213;28;20032;-49
2020/12/31 09:19:16;;;;;;;9.80;5.68;;;;;;;;;;5055573;28;20019;-51
2020/12/31 09:21:42;;;;;;;5.88;3.60;;;;;;;;;;5055240;28;20480;-50
2020/12/31 09:24:21;;;;;;;9.23;5.75;;;;;;;;;;5047566;28;20389;-49
2020/12/31 09:26:53;;;;;;;6.82;3.47;;;;;;;;;;5063977;28;20029;-49
2020/12/31 09:29:19;;;;;;;7.05;3.10;;;;;;;;;;5056715;28;20507;-50
2020/12/31 09:31:45;;;;;;;6.63;2.42;;;;;;;;;;5054536;28;20052;-51
2020/12/31 09:34:12;;;;;;;5.53;2.45;;;;;;;;;;5067118;28;20036;-51
2020/12/31 09:36:38;;;;;;;3.33;1.20;;;;;;;;;;5052927;28;20067;-51
2020/12/31 09:39:04;;;;;;;8.00;3.80;;;;;;;;;;5055449;28;20025;-50
2020/12/31 09:41:30;;;;;;;9.13;4.60;;;;;;;;;;5059532;28;20019;-51
2020/12/31 09:43:56;;;;;;;6.63;2.75;;;;;;;;;;5072882;28;20031;-52
2020/12/31 09:46:22;;;;;;;6.60;2.80;;;;;;;;;;5071252;28;20067;-50
2020/12/31 09:48:49;;;;;;;18.08;8.52;;;;;;;;;;5053512;28;20033;-51
2020/12/31 09:51:15;;;;;;;10.02;5.88;;;;;;;;;;5053600;28;20546;-49
2020/12/31 09:53:42;;;;;;;6.28;3.70;;;;;;;;;;5053834;28;20037;-50
2020/12/31 09:56:08;;;;;;;14.25;7.65;;;;;;;;;;5053120;28;20434;-51
2020/12/31 09:58:34;;;;;;;9.63;6.13;;;;;;;;;;5034755;28;20435;-49
2020/12/31 10:01:02;;;;;;;6.82;2.60;;;;;;;;;;5058678;28;20028;-52
2020/12/31 10:03:28;;;;;;;6.95;4.72;;;;;;;;;;5056246;28;20381;-52
2020/12/31 10:05:54;;;;;;;3.95;2.50;;;;;;;;;;5057146;28;20086;-51
2020/12/31 10:08:20;;;;;;;4.82;2.60;;;;;;;;;;5053915;28;20029;-52
2020/12/31 10:10:46;;;;;;;4.50;2.13;;;;;;;;;;5069093;28;20033;-51
2020/12/31 10:13:12;;;;;;;3.83;3.38;;;;;;;;;;5072444;28;20071;-52
2020/12/31 10:15:38;;;;;;;4.70;2.38;;;;;;;;;;5072400;28;20111;-52
2020/12/31 10:18:04;;;;;;;1.77;1.52;;;;;;;;;;5072501;28;20472;-52
2020/12/31 10:20:31;;;;;;;1.65;0.80;;;;;;;;;;5072464;28;20115;-52
2020/12/31 10:22:57;;;;;;;4.57;1.33;;;;;;;;;;5072242;28;20067;-53
2020/12/31 10:25:23;;;;;;;3.50;2.63;;;;;;;;;;5072021;28;20385;-52
2020/12/31 10:27:49;;;;;;;2.65;2.03;;;;;;;;;;5072239;28;20021;-52
2020/12/31 10:30:15;;;;;;;3.65;3.08;;;;;;;;;;5072205;28;20074;-53
2020/12/31 10:32:41;;;;;;;2.85;2.00;;;;;;;;;;5071985;28;20035;-53
2020/12/31 10:35:07;;;;;;;4.15;2.20;;;;;;;;;;5072204;28;20025;-53
2020/12/31 10:37:33;;;;;;;3.08;2.58;;;;;;;;;;5072074;28;20031;-53
2020/12/31 10:39:59;;;;;;;3.85;1.63;;;;;;;;;;5060522;28;20074;-52
2020/12/31 10:42:25;;;;;;;11.48;8.93;;;;;;;;;;5072042;28;20050;-53
2020/12/31 10:44:51;;;;;;;10.50;7.20;;;;;;;;;;5071856;28;20112;-53
2020/12/31 10:47:18;;;;;;;4.35;3.60;;;;;;;;;;5072091;28;20024;-54
2020/12/31 10:49:44;;;;;;;6.32;4.93;;;;;;;;;;5071699;28;20051;-53
2020/12/31 10:52:10;;;;;;;4.03;2.80;;;;;;;;;;5071807;28;20021;-53
2020/12/31 10:54:36;;;;;;;12.05;7.13;;;;;;;;;;5071684;28;20109;-52
2020/12/31 10:57:02;;;;;;;6.95;4.80;;;;;;;;;;5071713;28;20028;-52
2020/12/31 10:59:28;;;;;;;3.70;3.03;;;;;;;;;;5071607;28;20480;-51
2020/12/31 11:01:54;;;;;;;8.48;5.05;;;;;;;;;;5071301;28;20021;-52
2020/12/31 11:04:21;;;;;;;7.45;3.95;;;;;;;;;;5057747;28;20024;-51
2020/12/31 11:06:47;;;;;;;3.40;3.10;;;;;;;;;;5071119;28;20028;-52
2020/12/31 11:09:14;;;;;;;2.90;2.60;;;;;;;;;;5071791;28;20071;-52
2020/12/31 11:11:40;;;;;;;3.80;2.72;;;;;;;;;;5071733;28;20166;-54
2020/12/31 11:14:07;;;;;;;5.25;4.20;;;;;;;;;;5052819;28;20527;-53
2020/12/31 11:16:33;;;;;;;9.70;7.25;;;;;;;;;;5069344;28;20048;-54
2020/12/31 11:18:59;;;;;;;6.72;5.90;;;;;;;;;;5059176;28;20021;-54
2020/12/31 11:21:25;;;;;;;5.28;4.18;;;;;;;;;;5063938;28;20472;-55
2020/12/31 11:23:51;;;;;;;6.40;5.80;;;;;;;;;;5075027;28;20051;-53
2020/12/31 11:26:19;;;;;;;8.10;3.92;;;;;;;;;;5075425;28;20388;-54
2020/12/31 11:28:48;;;;;;;5.85;4.53;;;;;;;;;;5075069;28;20119;-55
2020/12/31 11:31:15;;;;;;;1.95;1.50;;;;;;;;;;5075435;28;20038;-55
2020/12/31 11:33:43;;;;;;;4.25;3.15;;;;;;;;;;5074817;28;20028;-52
2020/12/31 11:36:09;;;;;;;6.30;4.72;;;;;;;;;;5061293;28;20044;-53
2020/12/31 11:38:36;;;;;;;9.25;6.55;;;;;;;;;;5075588;28;20483;-54
2020/12/31 11:41:04;;;;;;;2.20;2.00;;;;;;;;;;5074692;28;20082;-54
2020/12/31 11:43:30;;;;;;;4.95;3.80;;;;;;;;;;5075007;28;20055;-55
2020/12/31 11:45:56;;;;;;;5.35;4.28;;;;;;;;;;5073501;28;20016;-55
2020/12/31 11:48:22;;;;;;;9.57;8.27;;;;;;;;;;5075003;28;20044;-55
2020/12/31 11:50:51;;;;;;;11.48;8.18;;;;;;;;;;5075361;28;20025;-54
2020/12/31 11:53:18;;;;;;;4.32;3.20;;;;;;;;;;5075002;28;20028;-54
2020/12/31 11:55:44;;;;;;;6.22;4.78;;;;;;;;;;5074919;28;20029;-54
2020/12/31 11:58:10;;;;;;;22.65;18.88;;;;;;;;;;5061540;28;20112;-55
2020/12/31 12:00:36;;;;;;;10.23;7.57;;;;;;;;;;5074840;28;20055;-54
2020/12/31 12:03:02;;;;;;;12.07;8.23;;;;;;;;;;5074713;28;20040;-54
2020/12/31 12:05:28;;;;;;;15.38;9.13;;;;;;;;;;5074502;28;20021;-54
2020/12/31 12:07:54;;;;;;;16.83;13.35;;;;;;;;;;5074024;28;20020;-54
2020/12/31 12:10:20;;;;;;;10.45;5.78;;;;;;;;;;5074651;28;20102;-54
2020/12/31 12:12:46;;;;;;;7.28;4.93;;;;;;;;;;5074686;28;20025;-54
2020/12/31 12:15:13;;;;;;;7.82;4.80;;;;;;;;;;5074691;28;20021;-53
2020/12/31 12:17:40;;;;;;;11.65;6.20;;;;;;;;;;5073093;28;20043;-54
2020/12/31 12:20:06;;;;;;;18.20;9.27;;;;;;;;;;5074869;28;20024;-54
2020/12/31 12:22:32;;;;;;;9.30;6.72;;;;;;;;;;5074221;28;20024;-53
2020/12/31 12:25:00;;;;;;;10.32;7.72;;;;;;;;;;5074415;28;20496;-51
2020/12/31 12:27:26;;;;;;;102.78;56.85;;;;;;;;;;5074199;28;20070;-53
2020/12/31 12:29:52;;;;;;;12.57;7.05;;;;;;;;;;5073794;28;20037;-53
2020/12/31 12:32:19;;;;;;;10.13;7.32;;;;;;;;;;5074389;28;20066;-53
2020/12/31 12:34:45;;;;;;;11.23;8.52;;;;;;;;;;5074405;28;20059;-51
2020/12/31 12:37:11;;;;;;;29.88;19.08;;;;;;;;;;5074066;28;20021;-53
2020/12/31 12:39:37;;;;;;;17.55;11.23;;;;;;;;;;5074458;28;20052;-53
2020/12/31 12:42:03;;;;;;;10.95;7.18;;;;;;;;;;5074179;28;20031;-53
2020/12/31 12:44:29;;;;;;;32.78;20.20;;;;;;;;;;5073980;28;20020;-53
2020/12/31 12:46:55;;;;;;;50.40;28.05;;;;;;;;;;5073780;28;20017;-53
2020/12/31 12:49:21;;;;;;;25.02;16.33;;;;;;;;;;5073660;28;20562;-52
2020/12/31 12:51:48;;;;;;;18.67;12.05;;;;;;;;;;5073605;28;20384;-53
2020/12/31 12:54:14;;;;;;;19.35;10.82;;;;;;;;;;5055468;28;20501;-52
2020/12/31 12:56:40;;;;;;;30.95;16.83;;;;;;;;;;5073764;28;20388;-53
2020/12/31 12:59:06;;;;;;;21.33;11.88;;;;;;;;;;5073383;28;20032;-52
2020/12/31 13:01:32;;;;;;;25.90;14.55;;;;;;;;;;5065203;28;20032;-52
2020/12/31 13:03:58;;;;;;;42.25;21.35;;;;;;;;;;5072620;28;20096;-53
2020/12/31 13:06:24;;;;;;;43.13;25.33;;;;;;;;;;5058841;28;20097;-52
2020/12/31 13:08:50;;;;;;;22.00;15.23;;;;;;;;;;5073476;28;20029;-52
2020/12/31 13:11:20;;;;;;;31.48;15.40;;;;;;;;;;5072431;28;20016;-52
2020/12/31 13:13:46;;;;;;;27.17;14.57;;;;;;;;;;5058804;28;20524;-52
2020/12/31 13:16:13;;;;;;;16.95;10.50;;;;;;;;;;5056105;28;20103;-50
2020/12/31 13:18:39;;;;;;;22.27;12.95;;;;;;;;;;5053230;28;20067;-52
2020/12/31 13:21:05;;;;;;;22.40;14.65;;;;;;;;;;5059800;28;20028;-50
2020/12/31 13:23:31;;;;;;;18.98;11.77;;;;;;;;;;5052671;28;20025;-51
2020/12/31 13:25:57;;;;;;;26.15;14.85;;;;;;;;;;5058153;28;20033;-51
2020/12/31 13:28:23;;;;;;;34.20;20.25;;;;;;;;;;5055047;28;22301;-51
2020/12/31 13:30:50;;;;;;;31.52;19.23;;;;;;;;;;5062357;28;20381;-50
2020/12/31 13:33:17;;;;;;;52.60;32.85;;;;;;;;;;5053755;28;20024;-51
2020/12/31 13:35:43;;;;;;;30.77;17.50;;;;;;;;;;5054254;28;20532;-50
2020/12/31 13:38:13;;;;;;;25.55;15.98;;;;;;;;;;5053106;28;20025;-52
2020/12/31 13:40:40;;;;;;;44.53;24.23;;;;;;;;;;5059165;28;20020;-51
2020/12/31 13:43:06;;;;;;;41.40;24.15;;;;;;;;;;5071365;28;20530;-51
2020/12/31 13:45:33;;;;;;;107.82;75.53;;;;;;;;;;5056776;28;20024;-51
2020/12/31 13:47:59;;;;;;;93.97;46.70;;;;;;;;;;5060201;28;20385;-50
2020/12/31 13:50:25;;;;;;;43.85;23.05;;;;;;;;;;5072486;28;20041;-51
2020/12/31 13:52:51;;;;;;;65.35;35.55;;;;;;;;;;5071884;28;20826;-51
2020/12/31 13:55:17;;;;;;;41.40;25.58;;;;;;;;;;5072182;28;20043;-51
2020/12/31 13:57:44;;;;;;;42.55;24.65;;;;;;;;;;5072711;28;20531;-50
2020/12/31 14:00:11;;;;;;;36.10;21.08;;;;;;;;;;5069945;28;20036;-55
2020/12/31 14:02:38;;;;;;;35.83;21.05;;;;;;;;;;5062274;28;20028;-50
2020/12/31 14:05:04;;;;;;;18.08;11.10;;;;;;;;;;5052844;28;20017;-50
2020/12/31 14:07:31;;;;;;;9.50;7.32;;;;;;;;;;5064798;28;20094;-50
2020/12/31 14:09:57;;;;;;;7.80;5.30;;;;;;;;;;5052494;28;20051;-49
2020/12/31 14:12:23;;;;;;;4.70;3.17;;;;;;;;;;5055402;28;20600;-50
2020/12/31 14:14:49;;;;;;;13.35;8.13;;;;;;;;;;5055438;28;20021;-52
2020/12/31 14:17:15;;;;;;;11.60;7.22;;;;;;;;;;5071070;28;20392;-49
2020/12/31 14:19:41;;;;;;;15.40;10.90;;;;;;;;;;5061777;28;20024;-51
2020/12/31 14:22:11;;;;;;;14.43;7.97;;;;;;;;;;5064412;28;20028;-51
2020/12/31 14:24:37;;;;;;;11.75;8.32;;;;;;;;;;5061729;28;20045;-51
2020/12/31 14:27:04;;;;;;;25.55;14.73;;;;;;;;;;5052145;28;20028;-50
2020/12/31 14:29:30;;;;;;;176.38;83.22;;;;;;;;;;5067751;28;20043;-51
2020/12/31 14:31:56;;;;;;;331.42;168.38;;;;;;;;;;5053613;28;20095;-50